Terminal Aerodrome Forecast
Issued by NWS Jacksonville, FL

Home | Current Version | Previous Version | Text Only | Print | Product List | Glossary On
Versions: 1 2 3 4 5 6 7 8 9 10 11 12 13 14 15 16 17 18 19 20 21 22 23 24 25 26 27 28 29 30 31 32 33 34 35 36 37 38 39 40 41 42 43 44 45 46 47 48 49 50
000
FTUS42 KJAX 242300 RRA
TAFSSI
TAF
KSSI 242347Z 2500/2524 20011KT P6SM VCSH SCT015 OVC035
      TEMPO 2502/2505 26015G25KT BKN015
     FM250500 29012G22KT P6SM SCT020 OVC040
     FM251000 30010G18KT P6SM FEW020 OVC080
     FM251800 31007KT P6SM FEW030 SCT200=

USA.gov is the U.S. government's official web portal to all federal, state and local government web resources and services.